sensor_id;sensor_type;location;lat;lon;timestamp;P1;durP1;ratioP1;P2;durP2;ratioP2
29214;SDS011;16252;49.816;7.964;2023-02-28T00:00:09;4.18;;;2.20;;
29214;SDS011;16252;49.816;7.964;2023-02-28T00:02:37;2.47;;;1.70;;
29214;SDS011;16252;49.816;7.964;2023-02-28T00:05:03;2.67;;;1.83;;
29214;SDS011;16252;49.816;7.964;2023-02-28T00:07:29;2.10;;;1.90;;
29214;SDS011;16252;49.816;7.964;2023-02-28T00:09:56;2.40;;;1.88;;
29214;SDS011;16252;49.816;7.964;2023-02-28T00:12:21;2.03;;;1.65;;
29214;SDS011;16252;49.816;7.964;2023-02-28T00:14:46;2.38;;;1.30;;
29214;SDS011;16252;49.816;7.964;2023-02-28T00:17:12;2.40;;;1.60;;
29214;SDS011;16252;49.816;7.964;2023-02-28T00:19:37;3.42;;;1.50;;
29214;SDS011;16252;49.816;7.964;2023-02-28T00:22:02;5.57;;;1.75;;
29214;SDS011;16252;49.816;7.964;2023-02-28T00:24:27;5.50;;;2.30;;
29214;SDS011;16252;49.816;7.964;2023-02-28T00:26:53;2.90;;;1.75;;
29214;SDS011;16252;49.816;7.964;2023-02-28T00:29:18;2.40;;;1.92;;
29214;SDS011;16252;49.816;7.964;2023-02-28T00:31:43;1.98;;;1.70;;
29214;SDS011;16252;49.816;7.964;2023-02-28T00:34:08;2.15;;;1.80;;
29214;SDS011;16252;49.816;7.964;2023-02-28T00:36:33;3.05;;;1.73;;
29214;SDS011;16252;49.816;7.964;2023-02-28T00:38:59;3.10;;;1.85;;
29214;SDS011;16252;49.816;7.964;2023-02-28T00:41:24;2.72;;;1.55;;
29214;SDS011;16252;49.816;7.964;2023-02-28T00:43:49;1.70;;;1.60;;
29214;SDS011;16252;49.816;7.964;2023-02-28T00:46:15;2.25;;;1.52;;
29214;SDS011;16252;49.816;7.964;2023-02-28T00:48:40;2.40;;;1.73;;
29214;SDS011;16252;49.816;7.964;2023-02-28T00:51:05;1.60;;;1.50;;
29214;SDS011;16252;49.816;7.964;2023-02-28T00:53:31;2.22;;;1.77;;
29214;SDS011;16252;49.816;7.964;2023-02-28T00:55:57;2.80;;;1.70;;
29214;SDS011;16252;49.816;7.964;2023-02-28T00:58:23;2.25;;;1.85;;
29214;SDS011;16252;49.816;7.964;2023-02-28T01:00:48;2.88;;;1.50;;
29214;SDS011;16252;49.816;7.964;2023-02-28T01:03:15;2.15;;;1.73;;
29214;SDS011;16252;49.816;7.964;2023-02-28T01:05:41;1.65;;;1.40;;
29214;SDS011;16252;49.816;7.964;2023-02-28T01:08:06;2.55;;;1.50;;
29214;SDS011;16252;49.816;7.964;2023-02-28T01:10:32;2.00;;;1.73;;
29214;SDS011;16252;49.816;7.964;2023-02-28T01:12:57;3.03;;;1.70;;
29214;SDS011;16252;49.816;7.964;2023-02-28T01:15:23;2.42;;;1.80;;
29214;SDS011;16252;49.816;7.964;2023-02-28T01:17:48;3.30;;;1.80;;
29214;SDS011;16252;49.816;7.964;2023-02-28T01:20:13;3.03;;;2.15;;
29214;SDS011;16252;49.816;7.964;2023-02-28T01:22:39;2.35;;;1.75;;
29214;SDS011;16252;49.816;7.964;2023-02-28T01:25:04;1.60;;;1.50;;
29214;SDS011;16252;49.816;7.964;2023-02-28T01:27:29;1.85;;;1.63;;
29214;SDS011;16252;49.816;7.964;2023-02-28T01:29:55;4.18;;;1.80;;
29214;SDS011;16252;49.816;7.964;2023-02-28T01:32:20;4.15;;;1.50;;
29214;SDS011;16252;49.816;7.964;2023-02-28T01:34:46;1.92;;;1.70;;
29214;SDS011;16252;49.816;7.964;2023-02-28T01:37:11;1.95;;;1.75;;
29214;SDS011;16252;49.816;7.964;2023-02-28T01:39:36;1.52;;;1.42;;
29214;SDS011;16252;49.816;7.964;2023-02-28T01:42:01;1.77;;;1.58;;
29214;SDS011;16252;49.816;7.964;2023-02-28T01:47:31;3.20;;;1.58;;
29214;SDS011;16252;49.816;7.964;2023-02-28T01:50:00;2.00;;;1.50;;
29214;SDS011;16252;49.816;7.964;2023-02-28T01:52:29;3.28;;;1.90;;
29214;SDS011;16252;49.816;7.964;2023-02-28T01:54:56;4.03;;;2.00;;
29214;SDS011;16252;49.816;7.964;2023-02-28T01:57:25;2.30;;;1.60;;
29214;SDS011;16252;49.816;7.964;2023-02-28T02:00:00;3.35;;;1.90;;
29214;SDS011;16252;49.816;7.964;2023-02-28T02:02:32;2.72;;;1.80;;
29214;SDS011;16252;49.816;7.964;2023-02-28T02:05:00;2.28;;;1.75;;
29214;SDS011;16252;49.816;7.964;2023-02-28T02:07:31;1.95;;;1.80;;
29214;SDS011;16252;49.816;7.964;2023-02-28T02:10:04;2.10;;;1.83;;
29214;SDS011;16252;49.816;7.964;2023-02-28T02:12:36;2.05;;;1.83;;
29214;SDS011;16252;49.816;7.964;2023-02-28T02:15:40;1.90;;;1.80;;
29214;SDS011;16252;49.816;7.964;2023-02-28T02:20:59;3.53;;;2.00;;
29214;SDS011;16252;49.816;7.964;2023-02-28T02:26:57;2.38;;;2.00;;
29214;SDS011;16252;49.816;7.964;2023-02-28T02:34:40;2.53;;;1.70;;
29214;SDS011;16252;49.816;7.964;2023-02-28T02:40:19;2.17;;;1.90;;
29214;SDS011;16252;49.816;7.964;2023-02-28T02:42:57;2.25;;;1.92;;
29214;SDS011;16252;49.816;7.964;2023-02-28T02:48:05;3.38;;;2.25;;
29214;SDS011;16252;49.816;7.964;2023-02-28T02:50:38;2.15;;;1.65;;
29214;SDS011;16252;49.816;7.964;2023-02-28T02:53:08;2.10;;;1.90;;
29214;SDS011;16252;49.816;7.964;2023-02-28T02:55:37;2.17;;;1.98;;
29214;SDS011;16252;49.816;7.964;2023-02-28T02:58:08;2.47;;;2.05;;
29214;SDS011;16252;49.816;7.964;2023-02-28T03:00:41;3.22;;;2.33;;
29214;SDS011;16252;49.816;7.964;2023-02-28T03:03:11;2.20;;;2.00;;
29214;SDS011;16252;49.816;7.964;2023-02-28T03:05:47;3.33;;;2.20;;
29214;SDS011;16252;49.816;7.964;2023-02-28T03:08:14;2.35;;;2.15;;
29214;SDS011;16252;49.816;7.964;2023-02-28T03:10:41;3.20;;;2.30;;
29214;SDS011;16252;49.816;7.964;2023-02-28T03:24:27;3.33;;;2.55;;
29214;SDS011;16252;49.816;7.964;2023-02-28T03:27:14;2.67;;;2.42;;
29214;SDS011;16252;49.816;7.964;2023-02-28T03:29:47;3.05;;;2.58;;
29214;SDS011;16252;49.816;7.964;2023-02-28T03:32:22;3.45;;;2.65;;
29214;SDS011;16252;49.816;7.964;2023-02-28T03:35:01;3.95;;;2.40;;
29214;SDS011;16252;49.816;7.964;2023-02-28T03:37:33;3.95;;;2.67;;
29214;SDS011;16252;49.816;7.964;2023-02-28T03:40:10;2.97;;;2.70;;
29214;SDS011;16252;49.816;7.964;2023-02-28T03:42:39;2.63;;;2.42;;
29214;SDS011;16252;49.816;7.964;2023-02-28T03:45:12;2.88;;;2.40;;
29214;SDS011;16252;49.816;7.964;2023-02-28T03:47:42;2.60;;;2.13;;
29214;SDS011;16252;49.816;7.964;2023-02-28T03:50:24;3.78;;;2.80;;
29214;SDS011;16252;49.816;7.964;2023-02-28T03:52:55;2.78;;;2.47;;
29214;SDS011;16252;49.816;7.964;2023-02-28T03:55:27;3.40;;;2.50;;
29214;SDS011;16252;49.816;7.964;2023-02-28T03:58:03;3.77;;;2.50;;
29214;SDS011;16252;49.816;7.964;2023-02-28T04:00:39;2.95;;;2.60;;
29214;SDS011;16252;49.816;7.964;2023-02-28T04:03:08;4.07;;;2.30;;
29214;SDS011;16252;49.816;7.964;2023-02-28T04:05:33;3.60;;;2.65;;
29214;SDS011;16252;49.816;7.964;2023-02-28T04:08:16;3.33;;;2.30;;
29214;SDS011;16252;49.816;7.964;2023-02-28T04:10:41;3.15;;;2.50;;
29214;SDS011;16252;49.816;7.964;2023-02-28T04:13:08;2.50;;;2.13;;
29214;SDS011;16252;49.816;7.964;2023-02-28T04:15:33;2.58;;;2.20;;
29214;SDS011;16252;49.816;7.964;2023-02-28T04:17:59;3.25;;;2.55;;
29214;SDS011;16252;49.816;7.964;2023-02-28T04:20:24;3.50;;;2.60;;
29214;SDS011;16252;49.816;7.964;2023-02-28T04:22:58;3.70;;;2.50;;
29214;SDS011;16252;49.816;7.964;2023-02-28T04:25:23;2.60;;;2.35;;
29214;SDS011;16252;49.816;7.964;2023-02-28T04:27:49;2.80;;;2.60;;
29214;SDS011;16252;49.816;7.964;2023-02-28T04:30:14;2.50;;;2.22;;
29214;SDS011;16252;49.816;7.964;2023-02-28T04:32:40;3.78;;;2.38;;
29214;SDS011;16252;49.816;7.964;2023-02-28T04:35:05;2.70;;;2.50;;
29214;SDS011;16252;49.816;7.964;2023-02-28T04:37:31;3.47;;;2.45;;
29214;SDS011;16252;49.816;7.964;2023-02-28T04:39:59;3.10;;;2.67;;
29214;SDS011;16252;49.816;7.964;2023-02-28T04:42:27;4.97;;;2.70;;
29214;SDS011;16252;49.816;7.964;2023-02-28T04:45:00;2.85;;;2.38;;
29214;SDS011;16252;49.816;7.964;2023-02-28T04:47:25;2.53;;;2.33;;
29214;SDS011;16252;49.816;7.964;2023-02-28T04:49:50;2.72;;;2.47;;
29214;SDS011;16252;49.816;7.964;2023-02-28T04:52:18;2.88;;;2.60;;
29214;SDS011;16252;49.816;7.964;2023-02-28T04:54:44;2.97;;;2.42;;
29214;SDS011;16252;49.816;7.964;2023-02-28T04:57:10;3.13;;;2.60;;
29214;SDS011;16252;49.816;7.964;2023-02-28T04:59:35;3.35;;;2.60;;
29214;SDS011;16252;49.816;7.964;2023-02-28T05:02:00;3.05;;;2.75;;
29214;SDS011;16252;49.816;7.964;2023-02-28T05:04:31;2.72;;;2.45;;
29214;SDS011;16252;49.816;7.964;2023-02-28T05:06:59;4.78;;;2.72;;
29214;SDS011;16252;49.816;7.964;2023-02-28T05:09:25;4.30;;;2.80;;
29214;SDS011;16252;49.816;7.964;2023-02-28T05:11:51;3.10;;;2.80;;
29214;SDS011;16252;49.816;7.964;2023-02-28T05:14:16;4.40;;;2.75;;
29214;SDS011;16252;49.816;7.964;2023-02-28T05:16:42;2.97;;;2.58;;
29214;SDS011;16252;49.816;7.964;2023-02-28T05:19:09;6.20;;;3.00;;
29214;SDS011;16252;49.816;7.964;2023-02-28T05:21:41;3.63;;;2.42;;
29214;SDS011;16252;49.816;7.964;2023-02-28T05:24:18;3.17;;;2.53;;
29214;SDS011;16252;49.816;7.964;2023-02-28T05:26:47;3.38;;;2.72;;
29214;SDS011;16252;49.816;7.964;2023-02-28T05:29:19;3.05;;;2.75;;
29214;SDS011;16252;49.816;7.964;2023-02-28T05:31:47;3.95;;;2.95;;
29214;SDS011;16252;49.816;7.964;2023-02-28T05:34:15;9.65;;;5.85;;
29214;SDS011;16252;49.816;7.964;2023-02-28T05:36:41;6.88;;;4.82;;
29214;SDS011;16252;49.816;7.964;2023-02-28T05:39:09;6.88;;;4.63;;
29214;SDS011;16252;49.816;7.964;2023-02-28T05:41:38;4.22;;;3.10;;
29214;SDS011;16252;49.816;7.964;2023-02-28T05:44:04;4.70;;;3.22;;
29214;SDS011;16252;49.816;7.964;2023-02-28T05:46:29;3.95;;;3.17;;
29214;SDS011;16252;49.816;7.964;2023-02-28T05:48:55;8.25;;;3.45;;
29214;SDS011;16252;49.816;7.964;2023-02-28T05:51:22;4.45;;;3.10;;
29214;SDS011;16252;49.816;7.964;2023-02-28T05:53:48;3.45;;;2.80;;
29214;SDS011;16252;49.816;7.964;2023-02-28T05:56:14;3.35;;;2.92;;
29214;SDS011;16252;49.816;7.964;2023-02-28T05:58:39;3.03;;;2.70;;
29214;SDS011;16252;49.816;7.964;2023-02-28T06:01:24;2.95;;;2.55;;
29214;SDS011;16252;49.816;7.964;2023-02-28T06:04:00;3.97;;;2.78;;
29214;SDS011;16252;49.816;7.964;2023-02-28T06:06:26;5.40;;;2.72;;
29214;SDS011;16252;49.816;7.964;2023-02-28T06:08:51;3.60;;;2.58;;
29214;SDS011;16252;49.816;7.964;2023-02-28T06:11:17;8.15;;;4.20;;
29214;SDS011;16252;49.816;7.964;2023-02-28T06:13:44;5.45;;;3.33;;
29214;SDS011;16252;49.816;7.964;2023-02-28T06:16:10;5.40;;;3.63;;
29214;SDS011;16252;49.816;7.964;2023-02-28T06:18:35;5.95;;;4.10;;
29214;SDS011;16252;49.816;7.964;2023-02-28T06:21:01;4.85;;;3.22;;
29214;SDS011;16252;49.816;7.964;2023-02-28T06:23:26;4.28;;;3.13;;
29214;SDS011;16252;49.816;7.964;2023-02-28T06:25:52;7.40;;;2.55;;
29214;SDS011;16252;49.816;7.964;2023-02-28T06:28:18;3.83;;;2.90;;
29214;SDS011;16252;49.816;7.964;2023-02-28T06:30:44;3.55;;;2.70;;
29214;SDS011;16252;49.816;7.964;2023-02-28T06:33:09;3.50;;;2.20;;
29214;SDS011;16252;49.816;7.964;2023-02-28T06:35:34;3.55;;;2.60;;
29214;SDS011;16252;49.816;7.964;2023-02-28T06:38:00;2.63;;;2.42;;
29214;SDS011;16252;49.816;7.964;2023-02-28T06:40:25;3.88;;;2.55;;
29214;SDS011;16252;49.816;7.964;2023-02-28T06:42:51;3.67;;;2.90;;
29214;SDS011;16252;49.816;7.964;2023-02-28T06:45:16;3.65;;;2.38;;
29214;SDS011;16252;49.816;7.964;2023-02-28T06:47:42;2.50;;;2.30;;
29214;SDS011;16252;49.816;7.964;2023-02-28T06:50:09;3.35;;;2.67;;
29214;SDS011;16252;49.816;7.964;2023-02-28T06:52:37;7.07;;;2.77;;
29214;SDS011;16252;49.816;7.964;2023-02-28T06:55:03;3.03;;;2.47;;
29214;SDS011;16252;49.816;7.964;2023-02-28T06:57:30;3.95;;;2.70;;
29214;SDS011;16252;49.816;7.964;2023-02-28T07:00:00;4.18;;;2.97;;
29214;SDS011;16252;49.816;7.964;2023-02-28T07:02:29;3.70;;;2.80;;
29214;SDS011;16252;49.816;7.964;2023-02-28T07:04:54;3.33;;;3.00;;
29214;SDS011;16252;49.816;7.964;2023-02-28T07:07:20;3.28;;;2.88;;
29214;SDS011;16252;49.816;7.964;2023-02-28T07:09:45;4.32;;;3.00;;
29214;SDS011;16252;49.816;7.964;2023-02-28T07:12:10;5.13;;;3.00;;
29214;SDS011;16252;49.816;7.964;2023-02-28T07:14:36;4.40;;;2.80;;
29214;SDS011;16252;49.816;7.964;2023-02-28T07:17:02;4.18;;;2.78;;
29214;SDS011;16252;49.816;7.964;2023-02-28T07:19:28;3.80;;;2.75;;
29214;SDS011;16252;49.816;7.964;2023-02-28T07:21:53;3.20;;;2.90;;
29214;SDS011;16252;49.816;7.964;2023-02-28T07:24:18;7.55;;;3.08;;
29214;SDS011;16252;49.816;7.964;2023-02-28T07:26:44;5.25;;;2.90;;
29214;SDS011;16252;49.816;7.964;2023-02-28T07:29:09;4.38;;;2.80;;
29214;SDS011;16252;49.816;7.964;2023-02-28T07:31:34;3.15;;;2.50;;
29214;SDS011;16252;49.816;7.964;2023-02-28T07:34:00;3.97;;;2.78;;
29214;SDS011;16252;49.816;7.964;2023-02-28T07:36:25;6.20;;;2.65;;
29214;SDS011;16252;49.816;7.964;2023-02-28T07:38:50;4.40;;;2.85;;
29214;SDS011;16252;49.816;7.964;2023-02-28T07:41:17;2.88;;;2.45;;
29214;SDS011;16252;49.816;7.964;2023-02-28T07:43:43;4.03;;;2.70;;
29214;SDS011;16252;49.816;7.964;2023-02-28T07:46:10;3.92;;;2.40;;
29214;SDS011;16252;49.816;7.964;2023-02-28T07:48:37;3.40;;;2.60;;
29214;SDS011;16252;49.816;7.964;2023-02-28T07:51:03;3.08;;;2.33;;
29214;SDS011;16252;49.816;7.964;2023-02-28T07:53:29;4.22;;;2.80;;
29214;SDS011;16252;49.816;7.964;2023-02-28T07:55:55;3.10;;;2.72;;
29214;SDS011;16252;49.816;7.964;2023-02-28T07:58:25;3.08;;;2.75;;
29214;SDS011;16252;49.816;7.964;2023-02-28T08:00:51;4.30;;;2.70;;
29214;SDS011;16252;49.816;7.964;2023-02-28T08:03:17;3.83;;;2.70;;
29214;SDS011;16252;49.816;7.964;2023-02-28T08:05:44;5.90;;;2.90;;
29214;SDS011;16252;49.816;7.964;2023-02-28T08:08:10;3.53;;;2.80;;
29214;SDS011;16252;49.816;7.964;2023-02-28T08:10:35;4.97;;;3.05;;
29214;SDS011;16252;49.816;7.964;2023-02-28T08:13:04;3.97;;;3.13;;
29214;SDS011;16252;49.816;7.964;2023-02-28T08:15:29;3.58;;;2.65;;
29214;SDS011;16252;49.816;7.964;2023-02-28T08:17:55;4.00;;;3.10;;
29214;SDS011;16252;49.816;7.964;2023-02-28T08:20:23;3.90;;;2.83;;
29214;SDS011;16252;49.816;7.964;2023-02-28T08:22:50;3.47;;;2.83;;
29214;SDS011;16252;49.816;7.964;2023-02-28T08:25:15;6.70;;;2.83;;
29214;SDS011;16252;49.816;7.964;2023-02-28T08:27:41;3.45;;;3.03;;
29214;SDS011;16252;49.816;7.964;2023-02-28T08:30:07;5.05;;;2.80;;
29214;SDS011;16252;49.816;7.964;2023-02-28T08:32:34;4.70;;;3.13;;
29214;SDS011;16252;49.816;7.964;2023-02-28T08:35:00;5.28;;;3.60;;
29214;SDS011;16252;49.816;7.964;2023-02-28T08:37:25;5.18;;;3.45;;
29214;SDS011;16252;49.816;7.964;2023-02-28T08:39:50;5.45;;;3.60;;
29214;SDS011;16252;49.816;7.964;2023-02-28T08:42:19;5.18;;;3.65;;
29214;SDS011;16252;49.816;7.964;2023-02-28T08:44:45;6.13;;;3.70;;
29214;SDS011;16252;49.816;7.964;2023-02-28T08:47:10;6.93;;;3.30;;
29214;SDS011;16252;49.816;7.964;2023-02-28T08:49:36;4.22;;;3.10;;
29214;SDS011;16252;49.816;7.964;2023-02-28T08:52:02;7.55;;;3.10;;
29214;SDS011;16252;49.816;7.964;2023-02-28T08:54:28;4.10;;;2.85;;
29214;SDS011;16252;49.816;7.964;2023-02-28T08:56:58;4.70;;;3.00;;
29214;SDS011;16252;49.816;7.964;2023-02-28T08:59:23;4.60;;;2.97;;
29214;SDS011;16252;49.816;7.964;2023-02-28T09:01:49;4.10;;;2.83;;
29214;SDS011;16252;49.816;7.964;2023-02-28T09:04:14;4.90;;;3.67;;
29214;SDS011;16252;49.816;7.964;2023-02-28T09:06:39;6.43;;;3.58;;
29214;SDS011;16252;49.816;7.964;2023-02-28T09:09:05;12.82;;;3.38;;
29214;SDS011;16252;49.816;7.964;2023-02-28T09:11:32;4.70;;;3.03;;
29214;SDS011;16252;49.816;7.964;2023-02-28T09:13:59;5.18;;;3.42;;
29214;SDS011;16252;49.816;7.964;2023-02-28T09:16:25;4.82;;;3.00;;
29214;SDS011;16252;49.816;7.964;2023-02-28T09:18:51;4.72;;;3.47;;
29214;SDS011;16252;49.816;7.964;2023-02-28T09:21:17;4.53;;;3.28;;
29214;SDS011;16252;49.816;7.964;2023-02-28T09:23:44;3.60;;;2.92;;
29214;SDS011;16252;49.816;7.964;2023-02-28T09:26:17;5.85;;;3.42;;
29214;SDS011;16252;49.816;7.964;2023-02-28T09:28:47;4.13;;;3.45;;
29214;SDS011;16252;49.816;7.964;2023-02-28T09:31:13;5.35;;;3.80;;
29214;SDS011;16252;49.816;7.964;2023-02-28T09:33:46;5.82;;;3.72;;
29214;SDS011;16252;49.816;7.964;2023-02-28T09:36:14;5.82;;;3.58;;
29214;SDS011;16252;49.816;7.964;2023-02-28T09:38:40;4.30;;;3.35;;
29214;SDS011;16252;49.816;7.964;2023-02-28T09:41:10;5.82;;;4.13;;
29214;SDS011;16252;49.816;7.964;2023-02-28T09:43:40;4.97;;;3.70;;
29214;SDS011;16252;49.816;7.964;2023-02-28T09:48:50;4.85;;;3.63;;
29214;SDS011;16252;49.816;7.964;2023-02-28T09:53:54;7.28;;;4.03;;
29214;SDS011;16252;49.816;7.964;2023-02-28T09:56:36;5.72;;;3.70;;
29214;SDS011;16252;49.816;7.964;2023-02-28T10:01:56;4.60;;;3.65;;
29214;SDS011;16252;49.816;7.964;2023-02-28T10:04:35;5.05;;;3.55;;
29214;SDS011;16252;49.816;7.964;2023-02-28T10:07:12;4.28;;;3.25;;
29214;SDS011;16252;49.816;7.964;2023-02-28T10:09:45;4.85;;;3.70;;
29214;SDS011;16252;49.816;7.964;2023-02-28T10:12:15;5.95;;;3.72;;
29214;SDS011;16252;49.816;7.964;2023-02-28T10:14:42;5.80;;;4.00;;
29214;SDS011;16252;49.816;7.964;2023-02-28T10:17:26;5.70;;;3.72;;
29214;SDS011;16252;49.816;7.964;2023-02-28T10:20:02;5.40;;;3.80;;
29214;SDS011;16252;49.816;7.964;2023-02-28T10:22:51;6.85;;;3.90;;
29214;SDS011;16252;49.816;7.964;2023-02-28T10:25:27;5.72;;;3.03;;
29214;SDS011;16252;49.816;7.964;2023-02-28T10:27:53;6.72;;;3.72;;
29214;SDS011;16252;49.816;7.964;2023-02-28T10:30:25;5.28;;;3.95;;
29214;SDS011;16252;49.816;7.964;2023-02-28T10:32:52;6.57;;;4.00;;
29214;SDS011;16252;49.816;7.964;2023-02-28T10:37:50;5.22;;;3.58;;
29214;SDS011;16252;49.816;7.964;2023-02-28T10:45:51;5.90;;;3.45;;
29214;SDS011;16252;49.816;7.964;2023-02-28T10:58:25;4.80;;;3.38;;
29214;SDS011;16252;49.816;7.964;2023-02-28T11:00:52;8.18;;;4.10;;
29214;SDS011;16252;49.816;7.964;2023-02-28T11:03:29;5.25;;;3.95;;
29214;SDS011;16252;49.816;7.964;2023-02-28T11:05:56;5.25;;;4.20;;
29214;SDS011;16252;49.816;7.964;2023-02-28T11:08:22;6.18;;;4.35;;
29214;SDS011;16252;49.816;7.964;2023-02-28T11:10:54;6.88;;;4.18;;
29214;SDS011;16252;49.816;7.964;2023-02-28T11:13:25;5.93;;;4.05;;
29214;SDS011;16252;49.816;7.964;2023-02-28T11:15:54;6.93;;;4.63;;
29214;SDS011;16252;49.816;7.964;2023-02-28T11:21:18;4.18;;;3.75;;
29214;SDS011;16252;49.816;7.964;2023-02-28T11:23:49;6.47;;;3.85;;
29214;SDS011;16252;49.816;7.964;2023-02-28T11:26:36;4.60;;;3.90;;
29214;SDS011;16252;49.816;7.964;2023-02-28T11:29:16;7.70;;;3.35;;
29214;SDS011;16252;49.816;7.964;2023-02-28T11:31:46;4.43;;;3.75;;
29214;SDS011;16252;49.816;7.964;2023-02-28T11:34:27;5.57;;;3.60;;
29214;SDS011;16252;49.816;7.964;2023-02-28T11:36:54;4.53;;;3.38;;
29214;SDS011;16252;49.816;7.964;2023-02-28T11:39:23;4.75;;;3.78;;
29214;SDS011;16252;49.816;7.964;2023-02-28T11:44:23;4.78;;;3.90;;
29214;SDS011;16252;49.816;7.964;2023-02-28T11:47:01;5.88;;;4.10;;
29214;SDS011;16252;49.816;7.964;2023-02-28T11:52:33;5.65;;;4.30;;
29214;SDS011;16252;49.816;7.964;2023-02-28T11:58:01;7.88;;;4.93;;
29214;SDS011;16252;49.816;7.964;2023-02-28T12:00:52;4.72;;;3.92;;
29214;SDS011;16252;49.816;7.964;2023-02-28T12:17:36;6.13;;;4.38;;
29214;SDS011;16252;49.816;7.964;2023-02-28T12:20:36;5.72;;;4.45;;
29214;SDS011;16252;49.816;7.964;2023-02-28T12:29:08;5.47;;;4.47;;
29214;SDS011;16252;49.816;7.964;2023-02-28T12:31:49;6.05;;;4.20;;
29214;SDS011;16252;49.816;7.964;2023-02-28T12:34:39;5.70;;;4.20;;
29214;SDS011;16252;49.816;7.964;2023-02-28T12:37:10;5.95;;;4.40;;
29214;SDS011;16252;49.816;7.964;2023-02-28T12:39:44;6.32;;;4.28;;
29214;SDS011;16252;49.816;7.964;2023-02-28T12:42:17;6.97;;;4.25;;
29214;SDS011;16252;49.816;7.964;2023-02-28T12:44:49;8.77;;;4.95;;
29214;SDS011;16252;49.816;7.964;2023-02-28T12:47:19;6.45;;;4.60;;
29214;SDS011;16252;49.816;7.964;2023-02-28T12:52:23;5.97;;;4.95;;
29214;SDS011;16252;49.816;7.964;2023-02-28T12:58:05;5.32;;;4.18;;
29214;SDS011;16252;49.816;7.964;2023-02-28T13:00:43;6.95;;;5.20;;
29214;SDS011;16252;49.816;7.964;2023-02-28T13:03:30;6.95;;;4.88;;
29214;SDS011;16252;49.816;7.964;2023-02-28T13:06:02;7.40;;;4.35;;
29214;SDS011;16252;49.816;7.964;2023-02-28T13:11:58;4.88;;;4.20;;
29214;SDS011;16252;49.816;7.964;2023-02-28T13:14:35;6.38;;;4.38;;
29214;SDS011;16252;49.816;7.964;2023-02-28T13:17:09;5.45;;;4.60;;
29214;SDS011;16252;49.816;7.964;2023-02-28T13:19:39;9.88;;;4.80;;
29214;SDS011;16252;49.816;7.964;2023-02-28T13:22:16;5.30;;;4.47;;
29214;SDS011;16252;49.816;7.964;2023-02-28T13:24:54;6.45;;;4.55;;
29214;SDS011;16252;49.816;7.964;2023-02-28T13:30:02;5.35;;;3.95;;
29214;SDS011;16252;49.816;7.964;2023-02-28T13:35:48;4.70;;;4.15;;
29214;SDS011;16252;49.816;7.964;2023-02-28T13:38:21;6.05;;;4.68;;
29214;SDS011;16252;49.816;7.964;2023-02-28T13:40:48;6.00;;;4.43;;
29214;SDS011;16252;49.816;7.964;2023-02-28T13:43:13;8.43;;;4.88;;
29214;SDS011;16252;49.816;7.964;2023-02-28T13:48:29;5.07;;;3.55;;
29214;SDS011;16252;49.816;7.964;2023-02-28T13:50:54;6.40;;;4.40;;
29214;SDS011;16252;49.816;7.964;2023-02-28T13:53:26;6.13;;;4.78;;
29214;SDS011;16252;49.816;7.964;2023-02-28T13:56:04;7.47;;;4.25;;
29214;SDS011;16252;49.816;7.964;2023-02-28T14:01:53;5.68;;;3.88;;
29214;SDS011;16252;49.816;7.964;2023-02-28T14:04:46;5.95;;;4.65;;
29214;SDS011;16252;49.816;7.964;2023-02-28T14:07:21;5.75;;;3.95;;
29214;SDS011;16252;49.816;7.964;2023-02-28T14:09:57;7.07;;;4.70;;
29214;SDS011;16252;49.816;7.964;2023-02-28T14:15:56;9.30;;;5.53;;
29214;SDS011;16252;49.816;7.964;2023-02-28T14:18:25;6.72;;;5.00;;
29214;SDS011;16252;49.816;7.964;2023-02-28T14:20:57;6.43;;;4.95;;
29214;SDS011;16252;49.816;7.964;2023-02-28T14:23:32;6.53;;;4.57;;
29214;SDS011;16252;49.816;7.964;2023-02-28T14:31:23;8.70;;;5.15;;
29214;SDS011;16252;49.816;7.964;2023-02-28T14:34:02;6.05;;;4.47;;
29214;SDS011;16252;49.816;7.964;2023-02-28T14:36:42;7.22;;;4.20;;
29214;SDS011;16252;49.816;7.964;2023-02-28T14:39:15;6.60;;;4.53;;
29214;SDS011;16252;49.816;7.964;2023-02-28T14:41:44;6.25;;;4.55;;
29214;SDS011;16252;49.816;7.964;2023-02-28T14:44:21;6.43;;;4.60;;
29214;SDS011;16252;49.816;7.964;2023-02-28T14:46:58;5.82;;;4.68;;
29214;SDS011;16252;49.816;7.964;2023-02-28T14:49:41;8.00;;;4.65;;
29214;SDS011;16252;49.816;7.964;2023-02-28T14:54:44;7.35;;;5.05;;
29214;SDS011;16252;49.816;7.964;2023-02-28T15:02:45;6.38;;;4.88;;
29214;SDS011;16252;49.816;7.964;2023-02-28T15:07:43;6.82;;;5.63;;
29214;SDS011;16252;49.816;7.964;2023-02-28T15:12:54;7.43;;;5.55;;
29214;SDS011;16252;49.816;7.964;2023-02-28T15:15:22;6.97;;;5.07;;
29214;SDS011;16252;49.816;7.964;2023-02-28T15:17:52;7.20;;;5.18;;
29214;SDS011;16252;49.816;7.964;2023-02-28T15:20:21;9.00;;;5.50;;
29214;SDS011;16252;49.816;7.964;2023-02-28T15:22:48;9.23;;;6.15;;
29214;SDS011;16252;49.816;7.964;2023-02-28T15:25:17;8.40;;;5.47;;
29214;SDS011;16252;49.816;7.964;2023-02-28T15:27:46;8.70;;;5.55;;
29214;SDS011;16252;49.816;7.964;2023-02-28T15:30:21;6.95;;;4.95;;
29214;SDS011;16252;49.816;7.964;2023-02-28T15:33:03;6.80;;;5.18;;
29214;SDS011;16252;49.816;7.964;2023-02-28T15:35:43;6.60;;;4.75;;
29214;SDS011;16252;49.816;7.964;2023-02-28T15:38:14;7.75;;;5.03;;
29214;SDS011;16252;49.816;7.964;2023-02-28T15:40:46;6.57;;;5.40;;
29214;SDS011;16252;49.816;7.964;2023-02-28T15:43:29;6.68;;;4.72;;
29214;SDS011;16252;49.816;7.964;2023-02-28T15:46:01;6.97;;;4.80;;
29214;SDS011;16252;49.816;7.964;2023-02-28T15:48:36;7.80;;;4.93;;
29214;SDS011;16252;49.816;7.964;2023-02-28T15:51:09;7.00;;;4.65;;
29214;SDS011;16252;49.816;7.964;2023-02-28T15:53:49;7.38;;;4.82;;
29214;SDS011;16252;49.816;7.964;2023-02-28T15:56:26;7.93;;;4.68;;
29214;SDS011;16252;49.816;7.964;2023-02-28T15:58:56;9.10;;;5.85;;
29214;SDS011;16252;49.816;7.964;2023-02-28T16:01:24;8.88;;;5.57;;
29214;SDS011;16252;49.816;7.964;2023-02-28T16:03:54;10.35;;;6.07;;
29214;SDS011;16252;49.816;7.964;2023-02-28T16:06:25;9.30;;;5.87;;
29214;SDS011;16252;49.816;7.964;2023-02-28T16:08:57;9.27;;;5.93;;
29214;SDS011;16252;49.816;7.964;2023-02-28T16:11:23;5.75;;;4.57;;
29214;SDS011;16252;49.816;7.964;2023-02-28T16:13:48;5.68;;;4.85;;
29214;SDS011;16252;49.816;7.964;2023-02-28T16:16:16;8.98;;;4.90;;
29214;SDS011;16252;49.816;7.964;2023-02-28T16:18:42;7.07;;;5.03;;
29214;SDS011;16252;49.816;7.964;2023-02-28T16:21:08;7.95;;;5.20;;
29214;SDS011;16252;49.816;7.964;2023-02-28T16:23:33;7.55;;;5.20;;
29214;SDS011;16252;49.816;7.964;2023-02-28T16:25:59;8.20;;;4.78;;
29214;SDS011;16252;49.816;7.964;2023-02-28T16:28:25;8.85;;;5.40;;
29214;SDS011;16252;49.816;7.964;2023-02-28T16:30:56;6.60;;;4.55;;
29214;SDS011;16252;49.816;7.964;2023-02-28T16:33:21;7.57;;;5.18;;
29214;SDS011;16252;49.816;7.964;2023-02-28T16:35:46;6.93;;;4.88;;
29214;SDS011;16252;49.816;7.964;2023-02-28T16:38:12;5.93;;;4.60;;
29214;SDS011;16252;49.816;7.964;2023-02-28T16:40:37;6.20;;;4.78;;
29214;SDS011;16252;49.816;7.964;2023-02-28T16:43:36;7.18;;;4.95;;
29214;SDS011;16252;49.816;7.964;2023-02-28T16:45:57;6.75;;;5.05;;
29214;SDS011;16252;49.816;7.964;2023-02-28T16:48:23;8.80;;;4.80;;
29214;SDS011;16252;49.816;7.964;2023-02-28T16:50:49;8.15;;;5.82;;
29214;SDS011;16252;49.816;7.964;2023-02-28T16:53:15;7.55;;;5.13;;
29214;SDS011;16252;49.816;7.964;2023-02-28T16:55:40;9.18;;;4.80;;
29214;SDS011;16252;49.816;7.964;2023-02-28T16:58:06;9.32;;;4.40;;
29214;SDS011;16252;49.816;7.964;2023-02-28T17:00:32;5.90;;;4.57;;
29214;SDS011;16252;49.816;7.964;2023-02-28T17:02:57;6.25;;;4.75;;
29214;SDS011;16252;49.816;7.964;2023-02-28T17:05:27;6.88;;;4.53;;
29214;SDS011;16252;49.816;7.964;2023-02-28T17:08:01;6.75;;;5.00;;
29214;SDS011;16252;49.816;7.964;2023-02-28T17:10:26;7.25;;;5.25;;
29214;SDS011;16252;49.816;7.964;2023-02-28T17:12:52;8.07;;;5.35;;